Time;durP1;ratioP1;P1;durP2;ratioP2;P2;SDS_P1;SDS_P2;PMS_P1;PMS_P2;Temp;Humidity;BMP_temperature;BMP_pressure;BME280_temperature;BME280_humidity;BME280_pressure;Samples;Min_cycle;Max_cycle;Signal;HPM_P1;HPM_P2
2022/09/11 00:00:48;;;;;;;4.72;3.33;;;;;;;;;;10034489;28;20104;-61
2022/09/11 00:05:45;;;;;;;6.25;3.85;;;;;;;;;;10049387;28;20064;-61
2022/09/11 00:10:39;;;;;;;10.63;3.22;;;;;;;;;;10058936;28;20068;-61
2022/09/11 00:15:51;;;;;;;9.38;3.65;;;;;;;;;;10058093;28;20053;-61
2022/09/11 00:20:50;;;;;;;7.28;4.25;;;;;;;;;;10022240;28;20041;-61
2022/09/11 00:25:45;;;;;;;7.55;4.43;;;;;;;;;;10032076;28;20053;-60
2022/09/11 00:30:39;;;;;;;8.88;4.93;;;;;;;;;;10050858;28;20062;-60
2022/09/11 00:35:34;;;;;;;14.50;4.75;;;;;;;;;;10034968;28;20042;-61
2022/09/11 00:40:30;;;;;;;16.02;5.95;;;;;;;;;;10047984;28;20092;-61
2022/09/11 00:45:26;;;;;;;9.18;5.00;;;;;;;;;;10030810;28;20046;-61
2022/09/11 00:50:21;;;;;;;7.32;5.75;;;;;;;;;;10038183;28;20136;-60
2022/09/11 00:55:17;;;;;;;5.50;4.97;;;;;;;;;;10055444;28;20049;-60
2022/09/11 01:00:13;;;;;;;9.60;5.00;;;;;;;;;;10055331;28;20061;-61
2022/09/11 01:05:06;;;;;;;10.07;5.57;;;;;;;;;;10053563;28;20075;-61
2022/09/11 01:10:02;;;;;;;8.40;4.43;;;;;;;;;;10028425;28;20076;-61
2022/09/11 01:15:04;;;;;;;15.48;5.20;;;;;;;;;;10037598;28;20563;-61
2022/09/11 01:20:13;;;;;;;9.75;4.05;;;;;;;;;;10061455;28;20049;-60
2022/09/11 01:25:36;;;;;;;5.90;3.90;;;;;;;;;;10061928;28;20053;-60
2022/09/11 01:30:36;;;;;;;7.68;4.40;;;;;;;;;;9963287;28;20128;-61
2022/09/11 01:36:12;;;;;;;7.63;3.88;;;;;;;;;;10007798;28;20046;-61
2022/09/11 01:41:15;;;;;;;5.95;3.63;;;;;;;;;;9945251;28;20485;-60
2022/09/11 01:46:48;;;;;;;8.45;4.90;;;;;;;;;;9988687;28;20050;-68
2022/09/11 01:52:05;;;;;;;4.90;2.28;;;;;;;;;;10005641;28;20509;-65
2022/09/11 01:57:27;;;;;;;7.22;3.20;;;;;;;;;;9992505;28;20374;-61
2022/09/11 02:02:31;;;;;;;6.68;2.40;;;;;;;;;;9993585;28;20054;-60
2022/09/11 02:08:10;;;;;;;5.20;2.80;;;;;;;;;;10008268;28;20398;-60
2022/09/11 02:14:05;;;;;;;6.90;2.30;;;;;;;;;;10019947;28;20067;-60
2022/09/11 02:19:28;;;;;;;6.43;2.60;;;;;;;;;;9978729;28;20473;-60
2022/09/11 02:24:41;;;;;;;5.45;2.92;;;;;;;;;;10038774;28;20050;-60
2022/09/11 02:29:35;;;;;;;5.40;2.45;;;;;;;;;;10025580;28;20116;-61
2022/09/11 02:34:33;;;;;;;5.28;3.38;;;;;;;;;;10039235;28;20469;-61
2022/09/11 02:39:46;;;;;;;8.40;3.38;;;;;;;;;;10018124;28;20149;-61
2022/09/11 02:44:58;;;;;;;5.95;3.08;;;;;;;;;;10052373;28;20466;-61
2022/09/11 02:50:21;;;;;;;7.07;2.83;;;;;;;;;;10048375;28;20057;-60
2022/09/11 02:55:46;;;;;;;3.95;2.90;;;;;;;;;;10026536;28;20049;-60
2022/09/11 03:00:40;;;;;;;3.20;2.40;;;;;;;;;;10047112;28;20065;-60
2022/09/11 03:05:36;;;;;;;7.85;3.47;;;;;;;;;;10039949;28;20046;-60
2022/09/11 03:10:29;;;;;;;5.63;4.35;;;;;;;;;;10056730;28;20041;-60
2022/09/11 03:15:22;;;;;;;5.15;3.38;;;;;;;;;;10071872;28;20065;-61
2022/09/11 03:20:18;;;;;;;7.95;3.80;;;;;;;;;;10066986;28;20077;-61
2022/09/11 03:25:11;;;;;;;9.13;3.97;;;;;;;;;;10069991;28;20048;-61
2022/09/11 03:30:09;;;;;;;6.57;3.60;;;;;;;;;;10052360;28;20144;-61
2022/09/11 03:35:06;;;;;;;6.55;3.72;;;;;;;;;;10042849;28;20070;-61
2022/09/11 03:40:04;;;;;;;6.35;4.57;;;;;;;;;;10052160;28;20523;-62
2022/09/11 03:45:02;;;;;;;5.00;3.78;;;;;;;;;;10064606;28;20052;-62
2022/09/11 03:49:59;;;;;;;9.48;4.63;;;;;;;;;;10068688;28;20072;-61
2022/09/11 03:54:53;;;;;;;8.00;3.63;;;;;;;;;;10037942;28;20046;-62
2022/09/11 03:59:48;;;;;;;4.00;3.53;;;;;;;;;;10053890;28;20052;-62
2022/09/11 04:04:43;;;;;;;5.90;4.10;;;;;;;;;;10016656;28;20088;-61
2022/09/11 04:09:36;;;;;;;5.38;4.22;;;;;;;;;;10060035;28;20058;-61
2022/09/11 04:14:30;;;;;;;5.60;3.85;;;;;;;;;;10056098;28;20069;-61
2022/09/11 04:19:25;;;;;;;6.55;3.58;;;;;;;;;;10056859;28;20057;-61
2022/09/11 04:24:19;;;;;;;3.10;2.70;;;;;;;;;;10038006;28;20085;-60
2022/09/11 04:29:12;;;;;;;5.30;2.17;;;;;;;;;;10062190;28;20059;-61
2022/09/11 04:34:05;;;;;;;7.65;2.42;;;;;;;;;;10055119;28;20053;-61
2022/09/11 04:39:01;;;;;;;5.78;2.63;;;;;;;;;;10046667;28;20088;-61
2022/09/11 04:43:59;;;;;;;5.45;2.50;;;;;;;;;;10012401;28;20056;-61
2022/09/11 04:49:03;;;;;;;9.15;2.78;;;;;;;;;;10040343;28;20103;-61
2022/09/11 04:53:58;;;;;;;5.53;2.70;;;;;;;;;;10037995;28;20124;-61
2022/09/11 04:59:12;;;;;;;7.10;3.47;;;;;;;;;;10036563;28;20086;-61
2022/09/11 05:04:11;;;;;;;4.57;3.20;;;;;;;;;;10037763;28;20080;-61
2022/09/11 05:09:07;;;;;;;6.80;2.60;;;;;;;;;;10014092;28;20096;-61
2022/09/11 05:14:01;;;;;;;3.80;2.75;;;;;;;;;;10041425;28;20049;-61
2022/09/11 05:18:58;;;;;;;9.50;4.22;;;;;;;;;;10022463;28;20108;-61
2022/09/11 05:23:54;;;;;;;8.15;3.70;;;;;;;;;;10032101;28;20107;-65
2022/09/11 05:28:59;;;;;;;8.38;4.07;;;;;;;;;;10016380;28;20505;-61
2022/09/11 05:33:55;;;;;;;9.25;3.38;;;;;;;;;;10015598;28;20045;-62
2022/09/11 05:38:52;;;;;;;4.23;2.97;;;;;;;;;;10013940;28;20075;-60
2022/09/11 05:43:46;;;;;;;9.13;3.72;;;;;;;;;;10016168;28;20056;-62
2022/09/11 05:48:40;;;;;;;3.95;3.17;;;;;;;;;;10034446;28;20053;-61
2022/09/11 05:53:34;;;;;;;8.52;3.70;;;;;;;;;;10031973;28;20660;-61
2022/09/11 05:58:33;;;;;;;4.03;2.70;;;;;;;;;;10011320;28;20053;-61
2022/09/11 06:03:32;;;;;;;6.38;2.53;;;;;;;;;;10015102;28;20382;-62
2022/09/11 06:08:26;;;;;;;5.50;2.60;;;;;;;;;;10031849;28;20088;-61
2022/09/11 06:13:20;;;;;;;6.15;2.75;;;;;;;;;;10024314;28;20045;-61
2022/09/11 06:18:16;;;;;;;3.78;2.22;;;;;;;;;;10032923;28;20124;-61
2022/09/11 06:23:12;;;;;;;7.80;2.33;;;;;;;;;;10014312;28;20409;-62
2022/09/11 06:28:06;;;;;;;7.95;2.65;;;;;;;;;;10034073;28;20080;-61
2022/09/11 06:33:00;;;;;;;2.97;2.33;;;;;;;;;;10032777;28;20046;-62
2022/09/11 06:37:54;;;;;;;3.90;2.97;;;;;;;;;;10032714;28;20046;-60
2022/09/11 06:42:47;;;;;;;3.50;2.03;;;;;;;;;;10011449;28;20082;-61
2022/09/11 06:47:41;;;;;;;7.30;1.65;;;;;;;;;;10008310;28;20065;-60
2022/09/11 06:52:36;;;;;;;6.13;2.13;;;;;;;;;;10007687;28;20133;-60
2022/09/11 06:57:35;;;;;;;7.03;2.20;;;;;;;;;;10009713;28;20042;-58
2022/09/11 07:02:39;;;;;;;6.82;2.30;;;;;;;;;;10006882;28;20050;-60
2022/09/11 07:07:36;;;;;;;7.18;2.28;;;;;;;;;;10009601;28;20049;-60
2022/09/11 07:12:30;;;;;;;7.00;2.10;;;;;;;;;;10007379;28;20057;-60
2022/09/11 07:17:24;;;;;;;8.80;3.25;;;;;;;;;;10008775;28;20080;-60
2022/09/11 07:22:18;;;;;;;9.70;4.03;;;;;;;;;;10016107;28;20045;-61
2022/09/11 07:27:13;;;;;;;6.70;5.55;;;;;;;;;;10024872;28;20455;-62
2022/09/11 07:32:07;;;;;;;11.00;8.32;;;;;;;;;;10029258;28;20107;-62
2022/09/11 07:37:02;;;;;;;14.85;8.02;;;;;;;;;;10025467;28;20408;-62
2022/09/11 07:41:57;;;;;;;15.75;7.70;;;;;;;;;;10029449;28;20144;-62
2022/09/11 07:46:54;;;;;;;12.82;7.97;;;;;;;;;;10039649;28;20054;-62
2022/09/11 07:51:48;;;;;;;15.95;8.95;;;;;;;;;;10036941;28;20049;-62
2022/09/11 07:56:48;;;;;;;19.75;7.68;;;;;;;;;;10037545;28;20132;-62
2022/09/11 08:01:43;;;;;;;9.35;6.53;;;;;;;;;;10039524;28;20050;-62
2022/09/11 08:06:38;;;;;;;10.25;8.27;;;;;;;;;;10043333;28;20053;-62
2022/09/11 08:11:39;;;;;;;9.63;5.85;;;;;;;;;;10038425;28;20553;-63
2022/09/11 08:16:34;;;;;;;8.70;5.43;;;;;;;;;;10044603;28;20050;-62
2022/09/11 08:21:29;;;;;;;10.25;4.82;;;;;;;;;;10011374;28;20050;-62
2022/09/11 08:26:29;;;;;;;12.73;4.72;;;;;;;;;;10038753;28;20061;-62
2022/09/11 08:31:25;;;;;;;11.15;5.10;;;;;;;;;;10033869;28;20465;-62
2022/09/11 08:36:23;;;;;;;9.02;5.18;;;;;;;;;;10027763;28;20056;-62
2022/09/11 08:41:40;;;;;;;7.65;5.22;;;;;;;;;;10024856;28;20405;-63
2022/09/11 08:46:40;;;;;;;11.55;4.07;;;;;;;;;;10017749;28;20140;-63
2022/09/11 08:51:35;;;;;;;12.57;4.47;;;;;;;;;;10037164;28;20514;-64
2022/09/11 08:56:32;;;;;;;8.07;4.80;;;;;;;;;;10006156;28;20409;-63
2022/09/11 09:01:45;;;;;;;10.67;4.57;;;;;;;;;;10032949;28;20053;-60
2022/09/11 09:06:52;;;;;;;7.55;4.00;;;;;;;;;;10038201;28;20080;-61
2022/09/11 09:12:31;;;;;;;6.47;4.07;;;;;;;;;;10020548;28;20188;-61
2022/09/11 09:17:34;;;;;;;12.23;5.18;;;;;;;;;;9987649;28;20050;-61
2022/09/11 09:22:39;;;;;;;10.60;5.68;;;;;;;;;;10014273;28;20041;-61
2022/09/11 09:28:11;;;;;;;9.85;5.50;;;;;;;;;;10026746;28;20148;-64
2022/09/11 09:33:39;;;;;;;6.38;3.88;;;;;;;;;;9951309;28;20055;-62
2022/09/11 09:38:35;;;;;;;7.45;3.80;;;;;;;;;;9984852;28;20137;-61
2022/09/11 09:44:09;;;;;;;8.32;3.72;;;;;;;;;;9966870;28;20047;-62
2022/09/11 09:49:02;;;;;;;6.38;3.28;;;;;;;;;;9918745;28;20076;-62
2022/09/11 09:54:01;;;;;;;3.90;2.70;;;;;;;;;;9955166;28;20421;-61
2022/09/11 09:59:07;;;;;;;6.85;3.80;;;;;;;;;;9956631;28;20057;-62
2022/09/11 10:04:14;;;;;;;8.93;4.07;;;;;;;;;;9958182;28;20054;-62
2022/09/11 10:09:37;;;;;;;;;;;;;;;;;;9957950;28;20062;-62
2022/09/11 10:14:51;;;;;;;6.70;2.63;;;;;;;;;;9941444;28;19933;-62
2022/09/11 10:19:45;;;;;;;4.45;2.88;;;;;;;;;;9952362;28;20082;-62
2022/09/11 10:24:42;;;;;;;6.38;2.72;;;;;;;;;;9960666;28;20074;-62
2022/09/11 10:29:35;;;;;;;6.03;2.40;;;;;;;;;;9984907;28;20145;-62
2022/09/11 10:34:39;;;;;;;7.47;2.50;;;;;;;;;;10032638;28;20068;-62
2022/09/11 10:39:42;;;;;;;5.95;3.00;;;;;;;;;;10035937;28;20061;-62
2022/09/11 10:44:40;;;;;;;3.88;2.47;;;;;;;;;;10018163;28;20046;-62
2022/09/11 10:49:35;;;;;;;4.68;2.60;;;;;;;;;;10027143;28;20038;-61
2022/09/11 10:54:57;;;;;;;5.70;2.47;;;;;;;;;;10042396;28;20060;-61
2022/09/11 11:00:15;;;;;;;5.78;2.72;;;;;;;;;;10036413;28;20053;-61
2022/09/11 11:05:15;;;;;;;6.82;2.38;;;;;;;;;;10021869;28;20046;-61
2022/09/11 11:10:55;;;;;;;5.82;2.38;;;;;;;;;;10027877;28;20054;-61
2022/09/11 11:16:05;;;;;;;9.45;2.65;;;;;;;;;;10038195;28;20466;-61
2022/09/11 11:21:13;;;;;;;6.88;2.70;;;;;;;;;;10045463;28;20049;-60
2022/09/11 11:26:12;;;;;;;5.72;2.25;;;;;;;;;;10034836;28;20058;-61
2022/09/11 11:31:33;;;;;;;8.25;2.55;;;;;;;;;;10040697;28;20131;-60
2022/09/11 11:36:33;;;;;;;5.70;3.00;;;;;;;;;;10042890;28;20137;-60
2022/09/11 11:41:33;;;;;;;5.88;2.65;;;;;;;;;;10034809;28;20519;-61
2022/09/11 11:46:32;;;;;;;6.53;2.50;;;;;;;;;;10030768;28;20054;-60
2022/09/11 11:51:33;;;;;;;3.47;1.77;;;;;;;;;;10031339;28;20064;-60
2022/09/11 11:56:50;;;;;;;4.20;2.33;;;;;;;;;;10039433;28;20464;-60
2022/09/11 12:01:49;;;;;;;6.28;2.47;;;;;;;;;;10034554;28;20544;-60
2022/09/11 12:06:43;;;;;;;7.28;2.65;;;;;;;;;;10038075;28;20044;-61
2022/09/11 12:11:36;;;;;;;6.10;2.30;;;;;;;;;;10040239;28;20050;-61
2022/09/11 12:16:34;;;;;;;6.05;2.42;;;;;;;;;;10039198;28;20046;-60
2022/09/11 12:21:30;;;;;;;7.45;2.55;;;;;;;;;;10037081;28;20408;-58
2022/09/11 12:26:25;;;;;;;5.70;2.10;;;;;;;;;;10039517;28;20057;-72
2022/09/11 12:31:19;;;;;;;7.10;2.03;;;;;;;;;;10020549;28;20062;-69
2022/09/11 12:36:16;;;;;;;4.70;1.80;;;;;;;;;;10035540;28;20648;-65
2022/09/11 12:41:34;;;;;;;3.85;2.20;;;;;;;;;;10033394;28;20057;-64
2022/09/11 12:46:27;;;;;;;6.22;2.10;;;;;;;;;;10033500;28;20045;-63
2022/09/11 12:51:38;;;;;;;5.15;1.90;;;;;;;;;;10038023;28;20501;-68
2022/09/11 12:56:33;;;;;;;7.13;1.80;;;;;;;;;;10029145;28;20053;-64
2022/09/11 13:01:29;;;;;;;5.40;2.83;;;;;;;;;;10031702;28;20046;-64
2022/09/11 13:06:24;;;;;;;4.03;2.08;;;;;;;;;;10009994;28;20046;-66
2022/09/11 13:11:35;;;;;;;4.32;2.05;;;;;;;;;;10026433;28;20486;-65
2022/09/11 13:16:35;;;;;;;5.25;2.30;;;;;;;;;;10028578;28;20076;-65
2022/09/11 13:21:46;;;;;;;6.32;2.00;;;;;;;;;;10037201;28;20045;-64
2022/09/11 13:26:40;;;;;;;6.57;2.10;;;;;;;;;;10030807;28;20046;-61
2022/09/11 13:31:35;;;;;;;5.68;2.70;;;;;;;;;;10032653;28;20061;-63
2022/09/11 13:36:30;;;;;;;7.25;1.95;;;;;;;;;;10018137;28;20570;-61
2022/09/11 13:41:29;;;;;;;7.85;2.50;;;;;;;;;;10031534;28;20052;-64
2022/09/11 13:46:25;;;;;;;5.28;2.00;;;;;;;;;;10028838;28;20153;-62
2022/09/11 13:51:21;;;;;;;5.07;2.42;;;;;;;;;;10028660;28;20064;-62
2022/09/11 13:56:35;;;;;;;6.07;1.65;;;;;;;;;;10029956;28;20132;-63
2022/09/11 14:01:29;;;;;;;7.28;2.33;;;;;;;;;;10031463;28;20050;-66
2022/09/11 14:06:24;;;;;;;;;;;;;;;;;;10031694;28;20057;-64
2022/09/11 14:11:40;;;;;;;5.30;2.00;;;;;;;;;;10031747;28;19921;-72
2022/09/11 14:16:36;;;;;;;6.13;2.22;;;;;;;;;;10038269;28;20527;-61
2022/09/11 14:21:33;;;;;;;4.10;2.22;;;;;;;;;;10027007;28;20053;-65
2022/09/11 14:26:30;;;;;;;7.68;1.83;;;;;;;;;;10037751;28;20051;-59
2022/09/11 14:31:37;;;;;;;10.75;2.90;;;;;;;;;;10045681;28;20508;-62
2022/09/11 14:36:32;;;;;;;4.60;2.40;;;;;;;;;;10029443;28;20049;-62
2022/09/11 14:41:26;;;;;;;5.13;2.00;;;;;;;;;;10030788;28;20064;-62
2022/09/11 14:46:21;;;;;;;5.13;1.90;;;;;;;;;;10025272;28;20159;-62
2022/09/11 14:51:15;;;;;;;3.60;1.80;;;;;;;;;;10028924;28;20059;-62
2022/09/11 14:56:11;;;;;;;5.32;2.20;;;;;;;;;;10024442;28;20477;-64
2022/09/11 15:01:12;;;;;;;6.25;2.58;;;;;;;;;;10034188;28;20056;-63
2022/09/11 15:06:15;;;;;;;5.28;2.08;;;;;;;;;;10034479;28;20556;-63
2022/09/11 15:11:13;;;;;;;4.22;1.90;;;;;;;;;;10022399;28;20519;-63
2022/09/11 15:16:08;;;;;;;3.25;1.65;;;;;;;;;;10026591;28;20073;-63
2022/09/11 15:21:03;;;;;;;5.53;1.73;;;;;;;;;;10033740;28;20049;-63
2022/09/11 15:26:00;;;;;;;2.85;1.98;;;;;;;;;;10042170;28;20128;-63
2022/09/11 15:31:01;;;;;;;4.57;2.03;;;;;;;;;;10030801;28;20050;-63
2022/09/11 15:36:05;;;;;;;4.82;1.70;;;;;;;;;;10035567;28;20046;-63
2022/09/11 15:41:04;;;;;;;4.30;1.75;;;;;;;;;;10032398;28;20033;-63
2022/09/11 15:46:14;;;;;;;8.13;1.70;;;;;;;;;;10027206;28;20037;-63
2022/09/11 15:51:18;;;;;;;6.85;2.17;;;;;;;;;;10023067;28;20048;-62
2022/09/11 15:56:16;;;;;;;4.15;1.73;;;;;;;;;;10016623;28;20466;-63
2022/09/11 16:01:21;;;;;;;3.55;1.75;;;;;;;;;;10021144;28;20046;-63
2022/09/11 16:06:19;;;;;;;5.85;2.42;;;;;;;;;;10039466;28;20095;-65
2022/09/11 16:11:16;;;;;;;7.13;2.20;;;;;;;;;;10045171;28;20052;-64
2022/09/11 16:16:10;;;;;;;7.00;1.80;;;;;;;;;;10039581;28;20038;-63
2022/09/11 16:21:13;;;;;;;3.00;1.92;;;;;;;;;;10044255;28;20069;-63
2022/09/11 16:26:30;;;;;;;2.92;1.75;;;;;;;;;;10045139;28;20157;-63
2022/09/11 16:31:27;;;;;;;3.73;1.77;;;;;;;;;;10038292;28;20061;-63
2022/09/11 16:36:25;;;;;;;4.45;1.92;;;;;;;;;;10040347;28;20077;-63
2022/09/11 16:41:22;;;;;;;6.60;1.77;;;;;;;;;;10042088;28;20058;-63
2022/09/11 16:46:21;;;;;;;1.85;1.60;;;;;;;;;;10031449;28;20046;-63
2022/09/11 16:51:17;;;;;;;6.00;1.80;;;;;;;;;;10046501;28;20528;-63
2022/09/11 16:56:13;;;;;;;2.55;1.73;;;;;;;;;;10034709;28;20481;-63
2022/09/11 17:01:13;;;;;;;6.10;2.55;;;;;;;;;;10039861;28;20045;-63
2022/09/11 17:06:07;;;;;;;4.63;1.88;;;;;;;;;;10029155;28;20120;-63
2022/09/11 17:11:03;;;;;;;6.60;1.60;;;;;;;;;;10041661;28;20108;-63
2022/09/11 17:16:06;;;;;;;4.63;1.97;;;;;;;;;;10048889;28;20125;-63
2022/09/11 17:21:10;;;;;;;2.10;1.50;;;;;;;;;;10033398;28;20500;-64
2022/09/11 17:26:08;;;;;;;4.13;1.90;;;;;;;;;;10030796;28;20476;-63
2022/09/11 17:31:03;;;;;;;7.00;1.83;;;;;;;;;;10039706;28;20507;-63
2022/09/11 17:35:58;;;;;;;3.83;1.70;;;;;;;;;;10040942;28;20132;-63
2022/09/11 17:40:56;;;;;;;5.47;2.22;;;;;;;;;;10045544;28;20137;-64
2022/09/11 17:45:52;;;;;;;;;;;;;;;;;;10032387;28;20124;-64
2022/09/11 17:50:47;;;;;;;4.13;1.65;;;;;;;;;;10029320;28;19944;-65
2022/09/11 17:55:41;;;;;;;2.72;2.05;;;;;;;;;;10029344;28;20455;-65
2022/09/11 18:00:35;;;;;;;3.90;1.88;;;;;;;;;;10029518;28;20489;-65
2022/09/11 18:05:29;;;;;;;5.10;1.65;;;;;;;;;;10029065;28;20129;-64
2022/09/11 18:10:23;;;;;;;5.03;1.83;;;;;;;;;;10030347;28;20137;-60
2022/09/11 18:15:17;;;;;;;2.25;1.95;;;;;;;;;;10033934;28;20053;-60
2022/09/11 18:20:13;;;;;;;5.25;1.58;;;;;;;;;;10033199;28;20425;-61
2022/09/11 18:25:08;;;;;;;5.05;2.00;;;;;;;;;;10032119;28;20124;-61
2022/09/11 18:30:02;;;;;;;4.43;2.33;;;;;;;;;;10036164;28;20061;-64
2022/09/11 18:34:56;;;;;;;3.47;2.28;;;;;;;;;;10026561;28;20096;-64
2022/09/11 18:39:52;;;;;;;5.20;3.73;;;;;;;;;;10029308;28;20054;-64
2022/09/11 18:44:46;;;;;;;5.45;4.07;;;;;;;;;;10026066;28;20099;-62
2022/09/11 18:49:41;;;;;;;7.25;3.25;;;;;;;;;;10024740;28;20128;-61
2022/09/11 18:54:40;;;;;;;7.28;2.75;;;;;;;;;;10027506;28;20046;-61
2022/09/11 18:59:44;;;;;;;7.10;2.60;;;;;;;;;;10024748;28;20133;-61
2022/09/11 19:04:45;;;;;;;5.13;2.22;;;;;;;;;;10028780;28;20118;-64
2022/09/11 19:09:48;;;;;;;6.68;2.75;;;;;;;;;;10028380;28;20044;-63
2022/09/11 19:14:50;;;;;;;7.95;2.38;;;;;;;;;;10030774;28;20448;-66
2022/09/11 19:19:46;;;;;;;2.40;2.10;;;;;;;;;;10026254;28;20046;-64
2022/09/11 19:24:41;;;;;;;9.80;2.70;;;;;;;;;;10020240;28;20053;-67
2022/09/11 19:29:35;;;;;;;5.93;2.75;;;;;;;;;;10030427;28;20057;-66
2022/09/11 19:34:30;;;;;;;8.52;2.53;;;;;;;;;;10033450;28;20049;-65
2022/09/11 19:39:30;;;;;;;6.00;3.22;;;;;;;;;;10039786;28;20057;-66
2022/09/11 19:44:24;;;;;;;4.15;2.80;;;;;;;;;;10038559;28;20097;-65
2022/09/11 19:49:18;;;;;;;4.30;2.80;;;;;;;;;;10023420;28;20359;-63
2022/09/11 19:54:13;;;;;;;8.05;2.63;;;;;;;;;;10029937;28;20042;-70
2022/09/11 19:59:07;;;;;;;6.13;2.70;;;;;;;;;;10031908;28;20481;-69
2022/09/11 20:04:01;;;;;;;9.80;4.10;;;;;;;;;;10030749;28;20057;-64
2022/09/11 20:08:57;;;;;;;6.38;3.25;;;;;;;;;;10031327;28;20050;-67
2022/09/11 20:14:09;;;;;;;5.95;4.10;;;;;;;;;;10037195;28;20100;-64
2022/09/11 20:19:05;;;;;;;6.70;2.83;;;;;;;;;;10034094;28;20080;-62
2022/09/11 20:23:59;;;;;;;9.10;4.60;;;;;;;;;;10030028;28;20436;-63
2022/09/11 20:29:14;;;;;;;5.22;2.88;;;;;;;;;;10027919;28;20527;-66
2022/09/11 20:34:09;;;;;;;4.15;2.80;;;;;;;;;;10033969;28;20157;-67
2022/09/11 20:39:09;;;;;;;5.57;2.90;;;;;;;;;;10035848;28;20061;-66
2022/09/11 20:44:11;;;;;;;4.75;4.05;;;;;;;;;;10015403;28;20053;-63
2022/09/11 20:49:06;;;;;;;7.93;3.20;;;;;;;;;;10040617;28;20140;-63
2022/09/11 20:54:00;;;;;;;8.48;3.47;;;;;;;;;;10028597;28;20054;-65
2022/09/11 20:58:55;;;;;;;9.07;3.83;;;;;;;;;;10029208;28;20118;-64
2022/09/11 21:03:53;;;;;;;5.47;3.10;;;;;;;;;;10033614;28;20511;-66
2022/09/11 21:08:49;;;;;;;;;;;;;;;;;;10032439;28;20049;-62
2022/09/11 21:13:44;;;;;;;6.40;3.00;;;;;;;;;;10025453;28;20012;-61
2022/09/11 21:18:38;;;;;;;4.03;2.80;;;;;;;;;;10032211;28;20365;-61
2022/09/11 21:23:33;;;;;;;7.13;3.08;;;;;;;;;;10023935;28;20056;-61
2022/09/11 21:28:28;;;;;;;6.22;3.00;;;;;;;;;;10024885;28;20511;-61
2022/09/11 21:33:21;;;;;;;6.07;3.17;;;;;;;;;;10026128;28;20054;-61
2022/09/11 21:38:15;;;;;;;3.80;3.17;;;;;;;;;;10035554;28;20062;-61
2022/09/11 21:43:09;;;;;;;5.47;3.50;;;;;;;;;;10037432;28;20396;-61
2022/09/11 21:48:04;;;;;;;8.23;4.10;;;;;;;;;;10044584;28;20509;-61
2022/09/11 21:52:58;;;;;;;4.55;2.85;;;;;;;;;;10033658;28;20378;-61
2022/09/11 21:57:52;;;;;;;5.50;3.45;;;;;;;;;;10039187;28;20119;-62
2022/09/11 22:02:46;;;;;;;5.78;2.88;;;;;;;;;;10040314;28;20123;-63
2022/09/11 22:07:40;;;;;;;3.17;2.60;;;;;;;;;;10046035;28;20112;-61
2022/09/11 22:12:35;;;;;;;4.18;2.90;;;;;;;;;;10042743;28;20053;-61
2022/09/11 22:17:28;;;;;;;5.47;3.67;;;;;;;;;;10039655;28;20581;-61
2022/09/11 22:22:23;;;;;;;5.50;3.35;;;;;;;;;;10035546;28;20033;-61
2022/09/11 22:27:17;;;;;;;5.38;3.47;;;;;;;;;;10035483;28;20530;-61
2022/09/11 22:32:10;;;;;;;4.80;3.00;;;;;;;;;;10040642;28;20057;-62
2022/09/11 22:37:05;;;;;;;5.47;3.58;;;;;;;;;;10027154;28;20053;-61
2022/09/11 22:41:59;;;;;;;5.18;3.40;;;;;;;;;;10042099;28;20050;-61
2022/09/11 22:46:53;;;;;;;4.28;3.70;;;;;;;;;;10035096;28;20046;-61
2022/09/11 22:51:46;;;;;;;3.50;3.20;;;;;;;;;;10017624;28;20096;-61
2022/09/11 22:56:40;;;;;;;5.43;4.68;;;;;;;;;;10034497;28;20053;-61
2022/09/11 23:01:35;;;;;;;6.03;4.25;;;;;;;;;;10038002;28;20137;-61
2022/09/11 23:11:42;;;;;;;10.07;4.57;;;;;;;;;;10042996;28;20045;-61
2022/09/11 23:16:47;;;;;;;5.57;4.55;;;;;;;;;;10044202;28;20060;-61
2022/09/11 23:21:52;;;;;;;6.57;3.88;;;;;;;;;;10036584;28;20129;-61
2022/09/11 23:26:51;;;;;;;10.05;4.55;;;;;;;;;;10032381;28;20054;-62
2022/09/11 23:31:45;;;;;;;4.50;4.10;;;;;;;;;;10030020;28;20428;-61
2022/09/11 23:36:40;;;;;;;5.70;3.50;;;;;;;;;;10031453;28;20050;-61
2022/09/11 23:41:33;;;;;;;4.38;3.10;;;;;;;;;;10032616;28;20053;-64
2022/09/11 23:46:28;;;;;;;6.13;3.65;;;;;;;;;;10034605;28;20061;-60
2022/09/11 23:51:22;;;;;;;4.03;3.20;;;;;;;;;;10030540;28;20115;-61
2022/09/11 23:56:15;;;;;;;5.00;3.30;;;;;;;;;;10033191;28;20100;-61
